Terminal Aerodrome Forecast
Issued by NWS Cleveland, OH

Home | Current Version | Previous Version | Text Only | Print | Product List | Glossary Off
Versions: 1 2 3 4 5 6 7 8 9 10 11

625
FTUS41 KCLE 201120
TAFMFD
TAF
KMFD 201120Z 2012/2112 VRB03KT P6SM SCT250
     FM201500 18007KT P6SM SCT250=

USA.gov is the U.S. government's official web portal to all federal, state and local government web resources and services.